sensor_id;sensor_type;location;lat;lon;timestamp;pressure;altitude;pressure_sealevel;temperature;humidity
12358;BME280;6243;51.244;6.774;2023-11-19T00:00:44;115150.97;;;-141.28;66.11
12358;BME280;6243;51.244;6.774;2023-11-19T00:03:10;115150.97;;;-141.28;65.63
12358;BME280;6243;51.244;6.774;2023-11-19T00:05:35;115150.97;;;-141.28;67.68
12358;BME280;6243;51.244;6.774;2023-11-19T00:08:01;115150.97;;;-141.28;65.50
12358;BME280;6243;51.244;6.774;2023-11-19T00:10:27;115150.97;;;-141.28;64.01
12358;BME280;6243;51.244;6.774;2023-11-19T00:12:52;115150.97;;;-141.28;63.56
12358;BME280;6243;51.244;6.774;2023-11-19T00:15:19;115150.97;;;-141.28;64.56
12358;BME280;6243;51.244;6.774;2023-11-19T00:17:46;115150.97;;;-141.28;64.28
12358;BME280;6243;51.244;6.774;2023-11-19T00:20:12;115150.97;;;-141.28;65.77
12358;BME280;6243;51.244;6.774;2023-11-19T00:22:38;115150.97;;;-141.28;63.38
12358;BME280;6243;51.244;6.774;2023-11-19T00:25:05;115150.97;;;-141.28;62.42
12358;BME280;6243;51.244;6.774;2023-11-19T00:27:31;115150.97;;;-141.28;62.82
12358;BME280;6243;51.244;6.774;2023-11-19T00:29:56;115150.97;;;-141.28;63.08
12358;BME280;6243;51.244;6.774;2023-11-19T00:32:23;115150.97;;;-141.28;63.26
12358;BME280;6243;51.244;6.774;2023-11-19T00:34:49;115150.97;;;-141.28;64.04
12358;BME280;6243;51.244;6.774;2023-11-19T00:37:15;115150.97;;;-141.28;64.49
12358;BME280;6243;51.244;6.774;2023-11-19T00:39:41;115150.97;;;-141.28;63.58
12358;BME280;6243;51.244;6.774;2023-11-19T00:42:06;115150.97;;;-141.28;62.90
12358;BME280;6243;51.244;6.774;2023-11-19T00:44:32;115150.97;;;-141.28;61.00
12358;BME280;6243;51.244;6.774;2023-11-19T00:46:58;115150.97;;;-141.28;64.24
12358;BME280;6243;51.244;6.774;2023-11-19T00:49:25;115150.97;;;-141.28;63.44
12358;BME280;6243;51.244;6.774;2023-11-19T00:51:50;115150.97;;;-141.28;62.60
12358;BME280;6243;51.244;6.774;2023-11-19T00:54:16;115150.97;;;-141.28;63.37
12358;BME280;6243;51.244;6.774;2023-11-19T00:56:42;115150.97;;;-141.28;63.44
12358;BME280;6243;51.244;6.774;2023-11-19T00:59:07;115150.97;;;-141.28;62.46
12358;BME280;6243;51.244;6.774;2023-11-19T01:01:33;115150.97;;;-141.28;62.98
12358;BME280;6243;51.244;6.774;2023-11-19T01:03:59;115150.97;;;-141.28;62.00
12358;BME280;6243;51.244;6.774;2023-11-19T01:06:30;115150.97;;;-141.28;62.87
12358;BME280;6243;51.244;6.774;2023-11-19T01:08:55;115150.97;;;-141.28;62.48
12358;BME280;6243;51.244;6.774;2023-11-19T01:11:21;115150.97;;;-141.28;64.19
12358;BME280;6243;51.244;6.774;2023-11-19T01:13:47;115150.97;;;-141.28;64.30
12358;BME280;6243;51.244;6.774;2023-11-19T01:16:13;115150.97;;;-141.28;62.40
12358;BME280;6243;51.244;6.774;2023-11-19T01:18:38;115150.97;;;-141.28;64.39
12358;BME280;6243;51.244;6.774;2023-11-19T01:21:04;115150.97;;;-141.28;63.15
12358;BME280;6243;51.244;6.774;2023-11-19T01:23:31;115150.97;;;-141.28;62.65
12358;BME280;6243;51.244;6.774;2023-11-19T01:25:57;115150.97;;;-141.28;63.54
12358;BME280;6243;51.244;6.774;2023-11-19T01:28:23;115150.97;;;-141.28;63.36
12358;BME280;6243;51.244;6.774;2023-11-19T01:30:50;115150.97;;;-141.28;64.14
12358;BME280;6243;51.244;6.774;2023-11-19T01:33:16;115150.97;;;-141.28;64.47
12358;BME280;6243;51.244;6.774;2023-11-19T01:35:42;115150.97;;;-141.28;63.83
12358;BME280;6243;51.244;6.774;2023-11-19T01:38:07;115150.97;;;-141.28;63.17
12358;BME280;6243;51.244;6.774;2023-11-19T01:40:35;115150.97;;;-141.28;62.35
12358;BME280;6243;51.244;6.774;2023-11-19T01:43:00;115150.97;;;-141.28;62.08
12358;BME280;6243;51.244;6.774;2023-11-19T01:45:28;115150.97;;;-141.28;62.90
12358;BME280;6243;51.244;6.774;2023-11-19T01:47:54;115150.97;;;-141.28;63.17
12358;BME280;6243;51.244;6.774;2023-11-19T01:50:20;115150.97;;;-141.28;62.31
12358;BME280;6243;51.244;6.774;2023-11-19T01:52:46;115150.97;;;-141.28;62.31
12358;BME280;6243;51.244;6.774;2023-11-19T01:55:14;115150.97;;;-141.28;62.31
12358;BME280;6243;51.244;6.774;2023-11-19T01:57:41;115150.97;;;-141.28;63.72
12358;BME280;6243;51.244;6.774;2023-11-19T02:00:09;115150.97;;;-141.28;63.56
12358;BME280;6243;51.244;6.774;2023-11-19T02:02:35;115150.97;;;-141.28;61.36
12358;BME280;6243;51.244;6.774;2023-11-19T02:05:01;115150.97;;;-141.28;63.10
12358;BME280;6243;51.244;6.774;2023-11-19T02:07:27;115150.97;;;-141.28;63.33
12358;BME280;6243;51.244;6.774;2023-11-19T02:09:52;115150.97;;;-141.28;63.24
12358;BME280;6243;51.244;6.774;2023-11-19T02:12:18;115150.97;;;-141.28;62.90
12358;BME280;6243;51.244;6.774;2023-11-19T02:14:45;115150.97;;;-141.28;63.25
12358;BME280;6243;51.244;6.774;2023-11-19T02:17:25;115150.97;;;-141.28;62.25
12358;BME280;6243;51.244;6.774;2023-11-19T02:19:51;115150.97;;;-141.28;63.07
12358;BME280;6243;51.244;6.774;2023-11-19T02:22:16;115150.97;;;-141.28;63.33
12358;BME280;6243;51.244;6.774;2023-11-19T02:24:42;115150.97;;;-141.28;62.29
12358;BME280;6243;51.244;6.774;2023-11-19T02:27:14;115150.97;;;-141.28;61.11
12358;BME280;6243;51.244;6.774;2023-11-19T02:29:42;115150.97;;;-141.28;60.90
12358;BME280;6243;51.244;6.774;2023-11-19T02:32:08;115150.97;;;-141.28;60.60
12358;BME280;6243;51.244;6.774;2023-11-19T02:34:34;115150.97;;;-141.28;62.25
12358;BME280;6243;51.244;6.774;2023-11-19T02:36:59;115150.97;;;-141.28;64.07
12358;BME280;6243;51.244;6.774;2023-11-19T02:39:25;115150.97;;;-141.28;61.53
12358;BME280;6243;51.244;6.774;2023-11-19T02:41:51;115150.97;;;-141.28;61.04
12358;BME280;6243;51.244;6.774;2023-11-19T02:44:16;115150.97;;;-141.28;62.78
12358;BME280;6243;51.244;6.774;2023-11-19T02:46:43;115150.97;;;-141.28;61.89
12358;BME280;6243;51.244;6.774;2023-11-19T02:49:09;115150.97;;;-141.28;61.39
12358;BME280;6243;51.244;6.774;2023-11-19T02:51:35;115150.97;;;-141.28;60.85
12358;BME280;6243;51.244;6.774;2023-11-19T02:54:01;115150.97;;;-141.28;59.46
12358;BME280;6243;51.244;6.774;2023-11-19T02:56:27;115150.97;;;-141.28;61.07
12358;BME280;6243;51.244;6.774;2023-11-19T02:58:52;115150.97;;;-141.28;60.75
12358;BME280;6243;51.244;6.774;2023-11-19T03:01:22;115150.97;;;-141.28;59.43
12358;BME280;6243;51.244;6.774;2023-11-19T03:03:49;115150.97;;;-141.28;61.24
12358;BME280;6243;51.244;6.774;2023-11-19T03:06:15;115150.97;;;-141.28;59.63
12358;BME280;6243;51.244;6.774;2023-11-19T03:08:40;115150.97;;;-141.28;60.31
12358;BME280;6243;51.244;6.774;2023-11-19T03:11:40;115150.97;;;-141.28;59.51
12358;BME280;6243;51.244;6.774;2023-11-19T03:14:05;115150.97;;;-141.28;58.97
12358;BME280;6243;51.244;6.774;2023-11-19T03:16:31;115150.97;;;-141.28;58.86
12358;BME280;6243;51.244;6.774;2023-11-19T03:18:58;115150.97;;;-141.28;57.97
12358;BME280;6243;51.244;6.774;2023-11-19T03:21:27;115150.97;;;-141.28;58.74
12358;BME280;6243;51.244;6.774;2023-11-19T03:23:53;115150.97;;;-141.28;58.66
12358;BME280;6243;51.244;6.774;2023-11-19T03:26:19;115150.97;;;-141.28;60.48
12358;BME280;6243;51.244;6.774;2023-11-19T03:28:44;115150.97;;;-141.28;60.23
12358;BME280;6243;51.244;6.774;2023-11-19T03:31:10;115150.97;;;-141.28;59.63
12358;BME280;6243;51.244;6.774;2023-11-19T03:33:36;115150.97;;;-141.28;58.79
12358;BME280;6243;51.244;6.774;2023-11-19T03:36:03;115150.97;;;-141.28;59.16
12358;BME280;6243;51.244;6.774;2023-11-19T03:38:29;115150.97;;;-141.28;58.54
12358;BME280;6243;51.244;6.774;2023-11-19T03:40:54;115150.97;;;-141.28;58.65
12358;BME280;6243;51.244;6.774;2023-11-19T03:43:20;115150.97;;;-141.28;59.93
12358;BME280;6243;51.244;6.774;2023-11-19T03:45:46;115150.97;;;-141.28;58.27
12358;BME280;6243;51.244;6.774;2023-11-19T03:48:11;115150.97;;;-141.28;58.05
12358;BME280;6243;51.244;6.774;2023-11-19T03:50:37;115150.97;;;-141.28;57.25
12358;BME280;6243;51.244;6.774;2023-11-19T03:53:04;115150.97;;;-141.28;57.20
12358;BME280;6243;51.244;6.774;2023-11-19T03:55:30;115150.97;;;-141.28;57.24
12358;BME280;6243;51.244;6.774;2023-11-19T03:57:56;115150.97;;;-141.28;57.02
12358;BME280;6243;51.244;6.774;2023-11-19T04:00:22;115150.97;;;-141.28;56.96
12358;BME280;6243;51.244;6.774;2023-11-19T04:02:47;115150.97;;;-141.28;55.89
12358;BME280;6243;51.244;6.774;2023-11-19T04:05:13;115150.97;;;-141.28;55.88
12358;BME280;6243;51.244;6.774;2023-11-19T04:07:39;115150.97;;;-141.28;56.00
12358;BME280;6243;51.244;6.774;2023-11-19T04:10:07;115150.97;;;-141.28;56.13
12358;BME280;6243;51.244;6.774;2023-11-19T04:12:32;115150.97;;;-141.28;56.28
12358;BME280;6243;51.244;6.774;2023-11-19T04:14:58;115150.97;;;-141.28;55.94
12358;BME280;6243;51.244;6.774;2023-11-19T04:17:24;115150.97;;;-141.28;55.72
12358;BME280;6243;51.244;6.774;2023-11-19T04:19:49;115150.97;;;-141.28;56.05
12358;BME280;6243;51.244;6.774;2023-11-19T04:22:15;115150.97;;;-141.28;55.55
12358;BME280;6243;51.244;6.774;2023-11-19T04:24:41;115150.97;;;-141.28;55.70
12358;BME280;6243;51.244;6.774;2023-11-19T04:27:08;115150.97;;;-141.28;55.35
12358;BME280;6243;51.244;6.774;2023-11-19T04:29:33;115150.97;;;-141.28;55.94
12358;BME280;6243;51.244;6.774;2023-11-19T04:31:59;115150.97;;;-141.28;55.45
12358;BME280;6243;51.244;6.774;2023-11-19T04:34:25;115150.97;;;-141.28;55.38
12358;BME280;6243;51.244;6.774;2023-11-19T04:36:50;115150.97;;;-141.28;55.15
12358;BME280;6243;51.244;6.774;2023-11-19T04:39:16;115150.97;;;-141.28;55.39
12358;BME280;6243;51.244;6.774;2023-11-19T04:41:48;115150.97;;;-141.28;55.61
12358;BME280;6243;51.244;6.774;2023-11-19T04:44:15;115150.97;;;-141.28;55.03
12358;BME280;6243;51.244;6.774;2023-11-19T04:46:41;115150.97;;;-141.28;55.16
12358;BME280;6243;51.244;6.774;2023-11-19T04:49:06;115150.97;;;-141.28;55.29
12358;BME280;6243;51.244;6.774;2023-11-19T04:51:38;115150.97;;;-141.28;55.19
12358;BME280;6243;51.244;6.774;2023-11-19T04:54:04;115150.97;;;-141.28;54.91
12358;BME280;6243;51.244;6.774;2023-11-19T04:56:30;115150.97;;;-141.28;56.67
12358;BME280;6243;51.244;6.774;2023-11-19T04:58:56;115150.97;;;-141.28;57.07
12358;BME280;6243;51.244;6.774;2023-11-19T05:01:23;115150.97;;;-141.28;56.90
12358;BME280;6243;51.244;6.774;2023-11-19T05:03:48;115150.97;;;-141.28;56.02
12358;BME280;6243;51.244;6.774;2023-11-19T05:06:14;115150.97;;;-141.28;55.48
12358;BME280;6243;51.244;6.774;2023-11-19T05:08:39;115150.97;;;-141.28;55.62
12358;BME280;6243;51.244;6.774;2023-11-19T05:11:05;115150.97;;;-141.28;55.54
12358;BME280;6243;51.244;6.774;2023-11-19T05:13:31;115150.97;;;-141.28;55.58
12358;BME280;6243;51.244;6.774;2023-11-19T05:15:56;115150.97;;;-141.28;55.98
12358;BME280;6243;51.244;6.774;2023-11-19T05:18:23;115150.97;;;-141.28;55.99
12358;BME280;6243;51.244;6.774;2023-11-19T05:20:49;115150.97;;;-141.28;54.47
12358;BME280;6243;51.244;6.774;2023-11-19T05:23:15;115150.97;;;-141.28;54.11
12358;BME280;6243;51.244;6.774;2023-11-19T05:25:40;115150.97;;;-141.28;54.55
12358;BME280;6243;51.244;6.774;2023-11-19T05:28:06;115150.97;;;-141.28;55.65
12358;BME280;6243;51.244;6.774;2023-11-19T05:30:32;115150.97;;;-141.28;55.32
12358;BME280;6243;51.244;6.774;2023-11-19T05:32:57;115150.97;;;-141.28;54.20
12358;BME280;6243;51.244;6.774;2023-11-19T05:35:24;115150.97;;;-141.28;54.51
12358;BME280;6243;51.244;6.774;2023-11-19T05:37:50;115150.97;;;-141.28;54.30
12358;BME280;6243;51.244;6.774;2023-11-19T05:40:15;115150.97;;;-141.28;55.31
12358;BME280;6243;51.244;6.774;2023-11-19T05:42:41;115150.97;;;-141.28;54.12
12358;BME280;6243;51.244;6.774;2023-11-19T05:45:08;115150.97;;;-141.28;55.38
12358;BME280;6243;51.244;6.774;2023-11-19T05:47:33;115150.97;;;-141.28;54.79
12358;BME280;6243;51.244;6.774;2023-11-19T05:49:59;115150.97;;;-141.28;54.69
12358;BME280;6243;51.244;6.774;2023-11-19T05:52:26;115150.97;;;-141.28;54.87
12358;BME280;6243;51.244;6.774;2023-11-19T05:54:52;115150.97;;;-141.28;54.04
12358;BME280;6243;51.244;6.774;2023-11-19T05:57:18;115150.97;;;-141.28;53.96
12358;BME280;6243;51.244;6.774;2023-11-19T05:59:43;115150.97;;;-141.28;54.74
12358;BME280;6243;51.244;6.774;2023-11-19T06:02:10;115150.97;;;-141.28;54.21
12358;BME280;6243;51.244;6.774;2023-11-19T06:04:36;115150.97;;;-141.28;54.66
12358;BME280;6243;51.244;6.774;2023-11-19T06:07:02;115150.97;;;-141.28;54.03
12358;BME280;6243;51.244;6.774;2023-11-19T06:09:29;115150.97;;;-141.28;54.39
12358;BME280;6243;51.244;6.774;2023-11-19T06:11:54;115150.97;;;-141.28;54.16
12358;BME280;6243;51.244;6.774;2023-11-19T06:14:20;115150.97;;;-141.28;54.19
12358;BME280;6243;51.244;6.774;2023-11-19T06:16:45;115150.97;;;-141.28;54.93
12358;BME280;6243;51.244;6.774;2023-11-19T06:19:11;115150.97;;;-141.28;54.94
12358;BME280;6243;51.244;6.774;2023-11-19T06:21:37;115150.97;;;-141.28;54.24
12358;BME280;6243;51.244;6.774;2023-11-19T06:24:03;115150.97;;;-141.28;54.21
12358;BME280;6243;51.244;6.774;2023-11-19T06:26:30;115150.97;;;-141.28;54.29
12358;BME280;6243;51.244;6.774;2023-11-19T06:28:56;115150.97;;;-141.28;54.21
12358;BME280;6243;51.244;6.774;2023-11-19T06:31:21;115150.97;;;-141.28;53.41
12358;BME280;6243;51.244;6.774;2023-11-19T06:33:47;115150.97;;;-141.28;53.41
12358;BME280;6243;51.244;6.774;2023-11-19T06:36:14;115150.97;;;-141.28;53.13
12358;BME280;6243;51.244;6.774;2023-11-19T06:38:40;115150.97;;;-141.28;53.53
12358;BME280;6243;51.244;6.774;2023-11-19T06:41:07;115150.97;;;-141.28;53.04
12358;BME280;6243;51.244;6.774;2023-11-19T06:43:35;115150.97;;;-141.28;53.67
12358;BME280;6243;51.244;6.774;2023-11-19T06:46:01;115150.97;;;-141.28;52.51
12358;BME280;6243;51.244;6.774;2023-11-19T06:48:26;115150.97;;;-141.28;52.03
12358;BME280;6243;51.244;6.774;2023-11-19T06:50:52;115150.97;;;-141.28;52.28
12358;BME280;6243;51.244;6.774;2023-11-19T06:53:17;115150.97;;;-141.28;52.28
12358;BME280;6243;51.244;6.774;2023-11-19T06:55:43;115150.97;;;-141.28;52.46
12358;BME280;6243;51.244;6.774;2023-11-19T06:58:09;115150.97;;;-141.28;52.95
12358;BME280;6243;51.244;6.774;2023-11-19T07:00:36;115150.97;;;-141.28;51.70
12358;BME280;6243;51.244;6.774;2023-11-19T07:03:02;115150.97;;;-141.28;52.44
12358;BME280;6243;51.244;6.774;2023-11-19T07:05:27;115150.97;;;-141.28;52.46
12358;BME280;6243;51.244;6.774;2023-11-19T07:07:53;115150.97;;;-141.28;53.30
12358;BME280;6243;51.244;6.774;2023-11-19T07:10:19;115150.97;;;-141.28;52.54
12358;BME280;6243;51.244;6.774;2023-11-19T07:12:44;115150.97;;;-141.28;52.31
12358;BME280;6243;51.244;6.774;2023-11-19T07:15:10;115150.97;;;-141.28;52.22
12358;BME280;6243;51.244;6.774;2023-11-19T07:17:38;115150.97;;;-141.28;52.01
12358;BME280;6243;51.244;6.774;2023-11-19T07:20:05;115150.97;;;-141.28;51.69
12358;BME280;6243;51.244;6.774;2023-11-19T07:22:30;115150.97;;;-141.28;52.68
12358;BME280;6243;51.244;6.774;2023-11-19T07:24:56;115150.97;;;-141.28;52.40
12358;BME280;6243;51.244;6.774;2023-11-19T07:27:22;115150.97;;;-141.28;51.90
12358;BME280;6243;51.244;6.774;2023-11-19T07:29:47;115150.97;;;-141.28;52.99
12358;BME280;6243;51.244;6.774;2023-11-19T07:32:13;115150.97;;;-141.28;53.35
12358;BME280;6243;51.244;6.774;2023-11-19T07:34:40;115150.97;;;-141.28;52.63
12358;BME280;6243;51.244;6.774;2023-11-19T07:37:06;115150.97;;;-141.28;52.61
12358;BME280;6243;51.244;6.774;2023-11-19T07:39:32;115150.97;;;-141.28;52.42
12358;BME280;6243;51.244;6.774;2023-11-19T07:41:57;115150.97;;;-141.28;52.82
12358;BME280;6243;51.244;6.774;2023-11-19T07:44:23;115150.97;;;-141.28;52.12
12358;BME280;6243;51.244;6.774;2023-11-19T07:46:49;115150.97;;;-141.28;51.73
12358;BME280;6243;51.244;6.774;2023-11-19T07:49:14;115150.97;;;-141.28;51.52
12358;BME280;6243;51.244;6.774;2023-11-19T07:51:41;115150.97;;;-141.28;51.63
12358;BME280;6243;51.244;6.774;2023-11-19T07:54:07;115150.97;;;-141.28;51.33
12358;BME280;6243;51.244;6.774;2023-11-19T07:56:33;115150.97;;;-141.28;51.15
12358;BME280;6243;51.244;6.774;2023-11-19T07:58:59;115150.97;;;-141.28;51.13
12358;BME280;6243;51.244;6.774;2023-11-19T08:01:24;115150.97;;;-141.28;51.07
12358;BME280;6243;51.244;6.774;2023-11-19T08:03:50;115150.97;;;-141.28;50.53
12358;BME280;6243;51.244;6.774;2023-11-19T08:06:16;115150.97;;;-141.28;51.41
12358;BME280;6243;51.244;6.774;2023-11-19T08:08:43;115150.97;;;-141.28;51.64
12358;BME280;6243;51.244;6.774;2023-11-19T08:11:08;115150.97;;;-141.28;51.94
12358;BME280;6243;51.244;6.774;2023-11-19T08:13:34;115150.97;;;-141.28;51.63
12358;BME280;6243;51.244;6.774;2023-11-19T08:16:00;115150.97;;;-141.28;51.19
12358;BME280;6243;51.244;6.774;2023-11-19T08:18:25;115150.97;;;-141.28;51.23
12358;BME280;6243;51.244;6.774;2023-11-19T08:20:51;115150.97;;;-141.28;51.26
12358;BME280;6243;51.244;6.774;2023-11-19T08:23:16;115150.97;;;-141.28;51.22
12358;BME280;6243;51.244;6.774;2023-11-19T08:25:43;115150.97;;;-141.28;51.46
12358;BME280;6243;51.244;6.774;2023-11-19T08:28:09;115150.97;;;-141.28;50.91
12358;BME280;6243;51.244;6.774;2023-11-19T08:30:35;115150.97;;;-141.28;51.35
12358;BME280;6243;51.244;6.774;2023-11-19T08:33:01;115150.97;;;-141.28;51.44
12358;BME280;6243;51.244;6.774;2023-11-19T08:35:26;115150.97;;;-141.28;50.98
12358;BME280;6243;51.244;6.774;2023-11-19T08:37:52;115150.97;;;-141.28;51.59
12358;BME280;6243;51.244;6.774;2023-11-19T08:40:18;115150.97;;;-141.28;51.54
12358;BME280;6243;51.244;6.774;2023-11-19T08:42:45;115150.97;;;-141.28;51.33
12358;BME280;6243;51.244;6.774;2023-11-19T08:45:10;115150.97;;;-141.28;51.53
12358;BME280;6243;51.244;6.774;2023-11-19T08:47:36;115150.97;;;-141.28;51.50
12358;BME280;6243;51.244;6.774;2023-11-19T08:50:02;115150.97;;;-141.28;51.53
12358;BME280;6243;51.244;6.774;2023-11-19T08:52:28;115150.97;;;-141.28;51.69
12358;BME280;6243;51.244;6.774;2023-11-19T08:54:53;115150.97;;;-141.28;50.80
12358;BME280;6243;51.244;6.774;2023-11-19T08:57:19;115150.97;;;-141.28;51.06
12358;BME280;6243;51.244;6.774;2023-11-19T08:59:46;115150.97;;;-141.28;50.84
12358;BME280;6243;51.244;6.774;2023-11-19T09:02:12;115150.97;;;-141.28;51.08
12358;BME280;6243;51.244;6.774;2023-11-19T09:04:37;115150.97;;;-141.28;50.61
12358;BME280;6243;51.244;6.774;2023-11-19T09:07:03;115150.97;;;-141.28;50.69
12358;BME280;6243;51.244;6.774;2023-11-19T09:09:29;115150.97;;;-141.28;50.66
12358;BME280;6243;51.244;6.774;2023-11-19T09:11:55;115150.97;;;-141.28;50.40
12358;BME280;6243;51.244;6.774;2023-11-19T09:14:20;115150.97;;;-141.28;50.05
12358;BME280;6243;51.244;6.774;2023-11-19T09:16:47;115150.97;;;-141.28;50.27
12358;BME280;6243;51.244;6.774;2023-11-19T09:19:13;115150.97;;;-141.28;49.78
12358;BME280;6243;51.244;6.774;2023-11-19T09:21:39;115150.97;;;-141.28;50.41
12358;BME280;6243;51.244;6.774;2023-11-19T09:24:05;115150.97;;;-141.28;49.90
12358;BME280;6243;51.244;6.774;2023-11-19T09:26:30;115150.97;;;-141.28;49.85
12358;BME280;6243;51.244;6.774;2023-11-19T09:28:56;115150.97;;;-141.28;49.68
12358;BME280;6243;51.244;6.774;2023-11-19T09:31:22;115150.97;;;-141.28;49.83
12358;BME280;6243;51.244;6.774;2023-11-19T09:33:49;115150.97;;;-141.28;48.79
12358;BME280;6243;51.244;6.774;2023-11-19T09:36:14;115150.97;;;-141.28;48.66
12358;BME280;6243;51.244;6.774;2023-11-19T09:38:40;115150.97;;;-141.28;48.42
12358;BME280;6243;51.244;6.774;2023-11-19T09:41:06;115150.97;;;-141.28;48.74
12358;BME280;6243;51.244;6.774;2023-11-19T09:43:32;115150.97;;;-141.28;48.99
12358;BME280;6243;51.244;6.774;2023-11-19T09:45:58;115150.97;;;-141.28;48.53
12358;BME280;6243;51.244;6.774;2023-11-19T09:48:27;115150.97;;;-141.28;48.47
12358;BME280;6243;51.244;6.774;2023-11-19T09:50:54;115150.97;;;-141.28;48.25
12358;BME280;6243;51.244;6.774;2023-11-19T09:53:20;115150.97;;;-141.28;48.03
12358;BME280;6243;51.244;6.774;2023-11-19T09:55:46;115150.97;;;-141.28;47.88
12358;BME280;6243;51.244;6.774;2023-11-19T09:58:14;115150.97;;;-141.28;47.85
12358;BME280;6243;51.244;6.774;2023-11-19T10:00:40;115150.97;;;-141.28;48.01
12358;BME280;6243;51.244;6.774;2023-11-19T10:03:07;115150.97;;;-141.28;47.77
12358;BME280;6243;51.244;6.774;2023-11-19T10:05:34;115150.97;;;-141.28;47.47
12358;BME280;6243;51.244;6.774;2023-11-19T10:08:03;115150.97;;;-141.28;48.07
12358;BME280;6243;51.244;6.774;2023-11-19T10:10:29;115150.97;;;-141.28;47.67
12358;BME280;6243;51.244;6.774;2023-11-19T10:12:55;115150.97;;;-141.28;47.80
12358;BME280;6243;51.244;6.774;2023-11-19T10:15:22;115150.97;;;-141.28;47.16
12358;BME280;6243;51.244;6.774;2023-11-19T10:17:48;115150.97;;;-141.28;46.95
12358;BME280;6243;51.244;6.774;2023-11-19T10:20:14;115150.97;;;-141.28;46.42
12358;BME280;6243;51.244;6.774;2023-11-19T10:22:39;115150.97;;;-141.28;46.20
12358;BME280;6243;51.244;6.774;2023-11-19T10:25:21;115150.97;;;-141.28;46.51
12358;BME280;6243;51.244;6.774;2023-11-19T10:27:47;115150.97;;;-141.28;46.12
12358;BME280;6243;51.244;6.774;2023-11-19T10:30:17;115150.97;;;-141.28;46.53
12358;BME280;6243;51.244;6.774;2023-11-19T10:32:43;115150.97;;;-141.28;45.53
12358;BME280;6243;51.244;6.774;2023-11-19T10:35:09;115150.97;;;-141.28;45.88
12358;BME280;6243;51.244;6.774;2023-11-19T10:37:34;115150.97;;;-141.28;46.17
12358;BME280;6243;51.244;6.774;2023-11-19T10:40:00;115150.97;;;-141.28;45.93
12358;BME280;6243;51.244;6.774;2023-11-19T10:42:27;115150.97;;;-141.28;46.19
12358;BME280;6243;51.244;6.774;2023-11-19T10:44:53;115150.97;;;-141.28;45.97
12358;BME280;6243;51.244;6.774;2023-11-19T10:47:19;115150.97;;;-141.28;46.27
12358;BME280;6243;51.244;6.774;2023-11-19T10:49:45;115150.97;;;-141.28;45.53
12358;BME280;6243;51.244;6.774;2023-11-19T10:52:10;115150.97;;;-141.28;46.21
12358;BME280;6243;51.244;6.774;2023-11-19T10:54:40;115150.97;;;-141.28;45.94
12358;BME280;6243;51.244;6.774;2023-11-19T10:57:09;115150.97;;;-141.28;45.65
12358;BME280;6243;51.244;6.774;2023-11-19T10:59:39;115150.97;;;-141.28;45.57
12358;BME280;6243;51.244;6.774;2023-11-19T11:02:09;115150.97;;;-141.28;45.95
12358;BME280;6243;51.244;6.774;2023-11-19T11:04:39;115150.97;;;-141.28;45.36
12358;BME280;6243;51.244;6.774;2023-11-19T11:07:05;115150.97;;;-141.28;45.81
12358;BME280;6243;51.244;6.774;2023-11-19T11:09:32;115150.97;;;-141.28;45.38
12358;BME280;6243;51.244;6.774;2023-11-19T11:11:59;115150.97;;;-141.28;45.51
12358;BME280;6243;51.244;6.774;2023-11-19T11:14:25;115150.97;;;-141.28;45.74
12358;BME280;6243;51.244;6.774;2023-11-19T11:16:53;115150.97;;;-141.28;45.44
12358;BME280;6243;51.244;6.774;2023-11-19T11:19:21;115150.97;;;-141.28;44.83
12358;BME280;6243;51.244;6.774;2023-11-19T11:21:50;115150.97;;;-141.28;45.13
12358;BME280;6243;51.244;6.774;2023-11-19T11:24:45;115150.97;;;-141.28;44.62
12358;BME280;6243;51.244;6.774;2023-11-19T11:27:35;115150.97;;;-141.28;45.17
12358;BME280;6243;51.244;6.774;2023-11-19T11:30:11;115150.97;;;-141.28;45.26
12358;BME280;6243;51.244;6.774;2023-11-19T11:32:44;115150.97;;;-141.28;45.21
12358;BME280;6243;51.244;6.774;2023-11-19T11:35:24;115150.97;;;-141.28;44.69
12358;BME280;6243;51.244;6.774;2023-11-19T11:37:59;115150.97;;;-141.28;45.46
12358;BME280;6243;51.244;6.774;2023-11-19T11:40:26;115150.97;;;-141.28;44.45
12358;BME280;6243;51.244;6.774;2023-11-19T11:42:52;115150.97;;;-141.28;44.68
12358;BME280;6243;51.244;6.774;2023-11-19T11:45:18;115150.97;;;-141.28;44.65
12358;BME280;6243;51.244;6.774;2023-11-19T11:48:09;115150.97;;;-141.28;44.80
12358;BME280;6243;51.244;6.774;2023-11-19T11:50:36;115150.97;;;-141.28;44.50
12358;BME280;6243;51.244;6.774;2023-11-19T11:53:19;115150.97;;;-141.28;45.10
12358;BME280;6243;51.244;6.774;2023-11-19T11:55:59;115150.97;;;-141.28;44.38
12358;BME280;6243;51.244;6.774;2023-11-19T11:58:42;115150.97;;;-141.28;43.90
12358;BME280;6243;51.244;6.774;2023-11-19T12:01:07;115150.97;;;-141.28;44.12
12358;BME280;6243;51.244;6.774;2023-11-19T12:03:36;115150.97;;;-141.28;43.95
12358;BME280;6243;51.244;6.774;2023-11-19T12:06:03;115150.97;;;-141.28;43.91
12358;BME280;6243;51.244;6.774;2023-11-19T12:08:29;115150.97;;;-141.28;43.43
12358;BME280;6243;51.244;6.774;2023-11-19T12:10:56;115150.97;;;-141.28;44.32
12358;BME280;6243;51.244;6.774;2023-11-19T12:13:21;115150.97;;;-141.28;44.98
12358;BME280;6243;51.244;6.774;2023-11-19T12:16:09;115150.97;;;-141.28;44.89
12358;BME280;6243;51.244;6.774;2023-11-19T12:18:39;115150.97;;;-141.28;44.65
12358;BME280;6243;51.244;6.774;2023-11-19T12:21:05;115150.97;;;-141.28;44.32
12358;BME280;6243;51.244;6.774;2023-11-19T12:23:31;115150.97;;;-141.28;44.20
12358;BME280;6243;51.244;6.774;2023-11-19T12:25:57;115150.97;;;-141.28;44.34
12358;BME280;6243;51.244;6.774;2023-11-19T12:28:22;115150.97;;;-141.28;44.53
12358;BME280;6243;51.244;6.774;2023-11-19T12:30:48;115150.97;;;-141.28;44.71
12358;BME280;6243;51.244;6.774;2023-11-19T12:33:14;115150.97;;;-141.28;44.40
12358;BME280;6243;51.244;6.774;2023-11-19T12:35:41;115150.97;;;-141.28;44.72
12358;BME280;6243;51.244;6.774;2023-11-19T12:38:07;115150.97;;;-141.28;44.78